LiveATC.Net - Listen to live air traffic control over the Internet!

ICAO: KPOU  IATA: POU   Airport: Dutchess County Airport
City: Poughkeepsie   State/Province: New York
Country: United States   Continent: North America
KPOU METAR Weather: KPOU 212053Z AUTO VRB03KT 10SM FEW070 19/18 A2953 RMK AO2 RAE19 SLP995 P0000 60018 T01940178 58038
KPOU Flight Activity (FlightAware)
KPOU Airport Info   (AirNav) (iFlightPlanner)
KPOU VFR Sectional Chart   (iFlightPlanner) 
KPOU IFR Low Chart   (iFlightPlanner) 
KPOU Ground/Tower
Feed Status: UP   Listeners: 0
Listen right in your browser - requires Flash (in browser, requires Flash)
Click here to listen with your own player (launches your MP3 player)
KPOU Ground/Tower Audio Archives
Dutchess County Ground121.800
Dutchess County Tower124.000
New York FSS (Poughkeepsie RCO)122.400

Sponsored by and Poughkeepsie Pilots Association


Unauthorized use prohibited. See Terms of Service

Find LiveATC Audio Streams

Airport/ARTCC Code

(e.g., 124.400, 128.75)
Site-wide search

Browse LiveATC Feeds
LiveATC Coverage Map
Top 50 LiveATC Feeds
Bad Weather Areas

Offer a LiveATC Feed
Press Inquiries

LiveATC on iPhone
LiveATC on Android

Windows Phone
Windows 8/10

LiveATC Mobile
(Mobile browser)

ATC Audio Archives
Interesting Recordings

LiveATC Forums

Home Page
Make a Donation
LiveATC Store

Terms of Use
Privacy Policy

Canadian Air Freqs


FAA Airport Status
Nat'l Airspace Status
Arrival Demand Charts

Server Software By: